Time;durP1;ratioP1;P1;durP2;ratioP2;P2;SDS_P1;SDS_P2;PMS_P1;PMS_P2;Temp;Humidity;BMP_temperature;BMP_pressure;BME280_temperature;BME280_humidity;BME280_pressure;Samples;Min_cycle;Max_cycle;Signal;HPM_P1;HPM_P2
2021/10/06 00:01:35;;;;;;;1.57;0.70;;;;;;;13.39;75.08;100250.63;4842081;29;20434;-75
2021/10/06 00:04:01;;;;;;;3.50;1.10;;;;;;;13.46;74.88;100242.22;4842289;29;20522;-75
2021/10/06 00:06:26;;;;;;;3.47;1.10;;;;;;;13.53;74.72;100251.75;4858333;29;20508;-75
2021/10/06 00:08:52;;;;;;;3.40;0.90;;;;;;;13.56;74.65;100257.75;4841806;29;20461;-75
2021/10/06 00:11:18;;;;;;;3.57;0.90;;;;;;;13.57;74.71;100256.69;4858947;29;20918;-75
2021/10/06 00:13:44;;;;;;;4.43;0.80;;;;;;;13.63;74.38;100261.88;4840617;29;20963;-76
2021/10/06 00:16:12;;;;;;;2.95;0.90;;;;;;;13.58;74.53;100274.63;4858294;29;20970;-75
2021/10/06 00:18:38;;;;;;;5.70;0.75;;;;;;;13.61;74.66;100274.91;4858828;29;20502;-75
2021/10/06 00:21:04;;;;;;;1.70;0.55;;;;;;;13.62;74.50;100284.72;4861973;29;20466;-76
2021/10/06 00:23:31;;;;;;;3.37;1.03;;;;;;;13.67;74.77;100283.91;4862108;29;20582;-75
2021/10/06 00:25:56;;;;;;;3.15;0.88;;;;;;;13.72;74.65;100283.94;4845252;29;20414;-75
2021/10/06 00:28:21;;;;;;;4.13;1.20;;;;;;;13.69;74.96;100290.72;4859334;29;20478;-75
2021/10/06 00:30:47;;;;;;;3.67;0.90;;;;;;;13.68;74.94;100288.25;4862061;29;20452;-76
2021/10/06 00:33:12;;;;;;;3.00;0.70;;;;;;;13.68;75.17;100294.53;4865004;29;20418;-75
2021/10/06 00:35:37;;;;;;;3.15;0.93;;;;;;;13.75;74.64;100280.66;4862087;29;20759;-76
2021/10/06 00:38:03;;;;;;;5.80;0.90;;;;;;;13.76;74.37;100290.47;4861217;29;20433;-75
2021/10/06 00:40:28;;;;;;;3.43;1.00;;;;;;;13.74;74.75;100287.19;4861400;29;20906;-75
2021/10/06 00:42:53;;;;;;;3.13;0.90;;;;;;;13.70;74.67;100291.56;4860522;29;20442;-75
2021/10/06 00:45:19;;;;;;;2.80;0.80;;;;;;;13.71;74.00;100296.72;4845198;29;20457;-75
2021/10/06 00:47:44;;;;;;;1.88;0.80;;;;;;;13.71;74.13;100291.28;4861679;29;20406;-75
2021/10/06 00:50:09;;;;;;;3.60;0.80;;;;;;;13.63;74.19;100294.53;4861841;29;20454;-76
2021/10/06 00:52:35;;;;;;;3.45;0.70;;;;;;;13.63;74.33;100296.44;4844924;29;20816;-75
2021/10/06 00:55:00;;;;;;;2.27;0.97;;;;;;;13.68;73.83;100291.00;4845323;29;20409;-75
2021/10/06 00:57:25;;;;;;;3.23;0.77;;;;;;;13.65;73.28;100300.53;4862744;29;20485;-75
2021/10/06 00:59:51;;;;;;;2.13;0.70;;;;;;;13.65;73.61;100295.06;4861726;29;20474;-76
2021/10/06 01:02:16;;;;;;;1.93;0.77;;;;;;;13.66;73.48;100301.34;4845322;29;20477;-76
2021/10/06 01:04:42;;;;;;;1.70;0.80;;;;;;;13.68;73.32;100294.53;4861538;29;21054;-75
2021/10/06 01:07:07;;;;;;;2.73;1.10;;;;;;;13.66;73.54;100296.72;4861084;29;20505;-75
2021/10/06 01:09:32;;;;;;;3.83;0.60;;;;;;;13.66;73.41;100307.63;4843577;29;20437;-75
2021/10/06 01:11:58;;;;;;;2.35;1.15;;;;;;;13.67;73.43;100298.34;4860311;29;20920;-75
2021/10/06 01:14:24;;;;;;;4.28;0.88;;;;;;;13.66;73.55;100307.63;4861041;29;20414;-76
2021/10/06 01:16:53;;;;;;;1.92;0.52;;;;;;;13.65;73.29;100303.25;4861399;29;20406;-76
2021/10/06 01:19:29;;;;;;;2.00;0.70;;;;;;;13.57;73.39;100305.69;4844566;29;21012;-75
2021/10/06 01:21:56;;;;;;;7.53;1.30;;;;;;;13.60;73.53;100305.94;4854011;29;20763;-76
2021/10/06 01:24:23;;;;;;;2.65;0.60;;;;;;;13.67;73.38;100313.84;4842867;29;20410;-75
2021/10/06 01:26:49;;;;;;;2.22;0.80;;;;;;;13.67;73.03;100305.69;4858778;29;20414;-75
2021/10/06 01:29:15;;;;;;;1.67;0.60;;;;;;;13.66;73.04;100323.13;4858666;29;20415;-76
2021/10/06 01:31:43;;;;;;;2.87;1.00;;;;;;;13.64;73.21;100317.13;4843583;29;20461;-76
2021/10/06 01:34:08;;;;;;;2.38;0.80;;;;;;;13.59;73.42;100317.94;4860786;29;20414;-75
2021/10/06 01:36:33;;;;;;;2.60;0.80;;;;;;;13.57;73.89;100320.09;4861206;29;20894;-75
2021/10/06 01:38:59;;;;;;;3.43;1.37;;;;;;;13.49;73.79;100321.44;4843364;29;20417;-75
2021/10/06 01:41:24;;;;;;;1.38;0.88;;;;;;;13.53;73.71;100327.97;4844151;29;20430;-76
2021/10/06 01:43:49;;;;;;;2.90;0.80;;;;;;;13.50;73.46;100320.34;4860402;29;20811;-75
2021/10/06 01:46:16;;;;;;;3.45;0.90;;;;;;;13.49;73.59;100317.91;4844044;29;20418;-75
2021/10/06 01:48:42;;;;;;;5.43;0.80;;;;;;;13.48;74.03;100318.97;4841217;29;20455;-76
2021/10/06 01:51:07;;;;;;;4.43;1.00;;;;;;;13.48;73.96;100321.69;4844428;29;20445;-75
2021/10/06 01:53:38;;;;;;;2.17;0.63;;;;;;;13.48;73.45;100321.69;4843466;29;20411;-75
2021/10/06 01:56:04;;;;;;;1.92;0.80;;;;;;;13.43;74.10;100318.97;4839765;29;20939;-76
2021/10/06 01:58:30;;;;;;;4.90;0.77;;;;;;;13.47;73.81;100320.06;4857046;29;20474;-75
2021/10/06 02:00:55;;;;;;;3.05;0.80;;;;;;;13.43;74.19;100327.16;4860843;29;20786;-75
2021/10/06 02:03:20;;;;;;;2.90;0.83;;;;;;;13.42;74.07;100330.94;4859697;29;20815;-76
2021/10/06 02:05:46;;;;;;;1.23;0.77;;;;;;;13.45;74.33;100323.06;4859369;29;20908;-75
2021/10/06 02:08:14;;;;;;;4.50;1.00;;;;;;;13.49;74.04;100328.78;4860821;29;20418;-76
2021/10/06 02:10:41;;;;;;;1.95;0.75;;;;;;;13.49;74.36;100329.63;4860520;29;20509;-75
2021/10/06 02:13:06;;;;;;;5.40;0.80;;;;;;;13.49;74.18;100320.63;4858629;29;20517;-75
2021/10/06 02:15:33;;;;;;;2.50;0.70;;;;;;;13.49;74.16;100326.06;4860468;29;20441;-75
2021/10/06 02:17:58;;;;;;;4.03;0.70;;;;;;;13.45;74.11;100322.25;4860012;29;20410;-75
2021/10/06 02:20:24;;;;;;;1.30;0.60;;;;;;;13.38;74.50;100314.31;4859777;29;20446;-75
2021/10/06 02:22:49;;;;;;;3.53;1.07;;;;;;;13.40;74.22;100319.50;4860214;29;20426;-75
2021/10/06 02:25:14;;;;;;;3.63;1.10;;;;;;;13.40;74.55;100320.31;4860196;29;20449;-75
2021/10/06 02:27:40;;;;;;;2.80;1.00;;;;;;;13.37;74.64;100326.28;4856877;29;21021;-75
2021/10/06 02:30:07;;;;;;;4.97;0.80;;;;;;;13.33;74.68;100327.09;4859960;29;20451;-75
2021/10/06 02:32:32;;;;;;;3.20;0.75;;;;;;;13.32;74.61;100320.00;4859387;29;20444;-75
2021/10/06 02:34:57;;;;;;;2.80;0.60;;;;;;;13.25;74.95;100319.44;4859074;29;20795;-76
2021/10/06 02:37:22;;;;;;;2.27;0.80;;;;;;;13.19;75.07;100321.31;4859804;29;20497;-76
2021/10/06 02:39:48;;;;;;;4.25;0.70;;;;;;;13.16;75.14;100315.59;4858408;29;20603;-75
2021/10/06 02:42:13;;;;;;;6.67;1.20;;;;;;;13.15;75.39;100316.66;4859267;29;20457;-75
2021/10/06 02:44:38;;;;;;;2.40;0.60;;;;;;;13.20;74.54;100322.16;4859071;29;20423;-75
2021/10/06 02:47:04;;;;;;;2.73;0.80;;;;;;;13.20;74.99;100322.16;4859788;29;20983;-75
2021/10/06 02:49:30;;;;;;;1.67;0.90;;;;;;;13.19;74.89;100323.22;4859674;29;20414;-75
2021/10/06 02:51:55;;;;;;;2.80;0.80;;;;;;;13.16;75.08;100329.19;4859911;29;20514;-76
2021/10/06 02:54:21;;;;;;;1.37;0.60;;;;;;;13.16;75.35;100321.84;4858081;29;20410;-75
2021/10/06 02:56:46;;;;;;;6.40;0.80;;;;;;;13.19;75.49;100331.38;4859302;29;20446;-75
2021/10/06 02:59:11;;;;;;;2.30;1.00;;;;;;;13.10;75.64;100330.25;4842908;29;20505;-75
2021/10/06 03:01:37;;;;;;;3.70;0.60;;;;;;;13.15;75.60;100333.81;4859318;29;20430;-76
2021/10/06 03:04:02;;;;;;;4.23;1.40;;;;;;;13.21;75.59;100340.91;4859345;29;20936;-75
2021/10/06 03:06:27;;;;;;;2.47;0.60;;;;;;;13.30;75.18;100342.06;4859604;29;20421;-75
2021/10/06 03:08:54;;;;;;;5.03;0.70;;;;;;;13.32;75.44;100345.31;4842905;29;20906;-75
2021/10/06 03:11:20;;;;;;;3.60;0.80;;;;;;;13.27;75.56;100345.28;4857977;29;20909;-75
2021/10/06 03:13:45;;;;;;;2.50;0.80;;;;;;;13.28;75.62;100337.94;4858660;29;20471;-75
2021/10/06 03:16:10;;;;;;;2.43;0.73;;;;;;;13.32;75.36;100352.66;4859337;29;20546;-75
2021/10/06 03:18:36;;;;;;;5.10;1.70;;;;;;;13.36;75.20;100360.06;4859064;29;20830;-75
2021/10/06 03:21:01;;;;;;;1.10;0.40;;;;;;;13.40;75.45;100363.06;4859118;29;20525;-75
2021/10/06 03:23:27;;;;;;;1.70;0.60;;;;;;;13.37;75.44;100361.66;4859425;29;20410;-75
2021/10/06 03:25:52;;;;;;;1.83;0.70;;;;;;;13.39;75.18;100367.69;4858148;29;20430;-75
2021/10/06 03:28:18;;;;;;;2.00;0.67;;;;;;;13.40;75.19;100369.31;4856692;29;20465;-75
2021/10/06 03:30:43;;;;;;;2.88;1.02;;;;;;;13.41;75.44;100378.28;4858547;29;20426;-76
2021/10/06 03:33:09;;;;;;;1.83;0.60;;;;;;;13.41;75.73;100375.56;4859120;29;20419;-75
2021/10/06 03:35:34;;;;;;;1.30;0.70;;;;;;;13.38;75.55;100378.81;4858963;29;20438;-75
2021/10/06 03:37:59;;;;;;;3.13;0.90;;;;;;;13.30;75.84;100377.44;4857811;29;20422;-75
2021/10/06 03:40:25;;;;;;;4.73;0.80;;;;;;;13.26;76.34;100384.50;4858641;29;20419;-75
2021/10/06 03:42:50;;;;;;;2.42;0.60;;;;;;;13.24;76.41;100394.81;4857062;29;20580;-76
2021/10/06 03:45:16;;;;;;;3.23;0.77;;;;;;;13.24;76.47;100399.44;4858945;29;20418;-75
2021/10/06 03:47:42;;;;;;;2.80;0.70;;;;;;;13.27;76.55;100402.44;4858704;29;20421;-75
2021/10/06 03:50:08;;;;;;;1.65;0.88;;;;;;;13.28;76.41;100416.88;4858224;29;20422;-75
2021/10/06 03:52:34;;;;;;;1.42;0.60;;;;;;;13.29;76.33;100410.34;4858567;29;20933;-75
2021/10/06 03:55:00;;;;;;;3.20;0.77;;;;;;;13.29;76.00;100408.47;4856707;29;20418;-75
2021/10/06 03:57:25;;;;;;;3.13;0.70;;;;;;;13.33;76.24;100416.91;4857581;29;20421;-75
2021/10/06 03:59:51;;;;;;;1.47;0.70;;;;;;;13.33;76.17;100422.38;4855338;29;20438;-75
2021/10/06 04:02:16;;;;;;;1.83;0.70;;;;;;;13.25;76.61;100433.72;4856836;29;20441;-76
2021/10/06 04:04:41;;;;;;;4.30;1.20;;;;;;;13.25;76.60;100426.38;4859045;29;20448;-75
2021/10/06 04:07:07;;;;;;;3.13;0.75;;;;;;;13.25;76.73;100436.44;4858756;29;20413;-75
2021/10/06 04:09:32;;;;;;;2.80;0.70;;;;;;;13.25;76.64;100434.56;4858841;29;20410;-75
2021/10/06 04:11:58;;;;;;;3.55;0.60;;;;;;;13.21;77.12;100438.06;4858733;29;20418;-75
2021/10/06 04:14:23;;;;;;;1.73;1.10;;;;;;;13.25;76.87;100442.72;4841818;29;20446;-76
2021/10/06 04:16:48;;;;;;;3.77;0.90;;;;;;;13.29;76.72;100440.28;4855510;29;20517;-75
2021/10/06 04:19:13;;;;;;;4.63;1.00;;;;;;;13.26;77.08;100438.94;4851967;29;20427;-75
2021/10/06 04:21:39;;;;;;;5.80;1.00;;;;;;;13.25;76.85;100452.78;4855894;29;20434;-75
2021/10/06 04:24:05;;;;;;;2.67;0.93;;;;;;;13.27;76.72;100453.34;4857904;29;20440;-75
2021/10/06 04:26:30;;;;;;;2.60;0.75;;;;;;;13.20;76.84;100450.03;4858550;29;20882;-75
2021/10/06 04:28:55;;;;;;;5.50;1.00;;;;;;;13.19;76.80;100456.56;4858181;29;20509;-75
2021/10/06 04:31:20;;;;;;;3.33;1.17;;;;;;;13.22;76.71;100453.31;4851057;29;20952;-75
2021/10/06 04:33:46;;;;;;;2.70;0.87;;;;;;;13.24;76.90;100460.13;4840391;29;20444;-75
2021/10/06 04:36:12;;;;;;;6.13;1.07;;;;;;;13.24;76.57;100462.84;4856209;29;20433;-75
2021/10/06 04:38:37;;;;;;;4.43;0.90;;;;;;;13.18;76.56;100465.78;4856684;29;20418;-75
2021/10/06 04:41:03;;;;;;;2.70;0.85;;;;;;;13.18;77.08;100461.16;4854348;29;20436;-76
2021/10/06 04:43:28;;;;;;;3.93;1.17;;;;;;;13.15;76.85;100455.44;4856523;29;20474;-76
2021/10/06 04:45:53;;;;;;;3.00;0.80;;;;;;;13.14;76.74;100457.31;4852658;29;20430;-75
2021/10/06 04:48:19;;;;;;;2.90;1.10;;;;;;;13.16;76.91;100459.81;4856265;29;20463;-77
2021/10/06 04:50:44;;;;;;;2.53;0.60;;;;;;;13.14;76.42;100459.25;4856141;29;20769;-76
2021/10/06 04:53:10;;;;;;;4.33;1.03;;;;;;;13.08;76.49;100471.13;4857603;29;20473;-76
2021/10/06 04:55:35;;;;;;;3.28;0.82;;;;;;;13.11;76.32;100473.34;4857477;29;20419;-75
2021/10/06 04:58:01;;;;;;;2.83;1.10;;;;;;;13.17;75.70;100481.28;4856299;29;20430;-76
2021/10/06 05:00:26;;;;;;;4.90;1.10;;;;;;;13.21;75.73;100478.88;4857281;29;20450;-76
2021/10/06 05:02:52;;;;;;;2.88;1.15;;;;;;;13.25;75.53;100478.09;4847570;29;20489;-76
2021/10/06 05:05:17;;;;;;;3.53;0.90;;;;;;;13.26;75.08;100487.09;4834911;29;20851;-76
2021/10/06 05:07:42;;;;;;;2.38;0.73;;;;;;;13.20;75.08;100493.59;4858423;29;20827;-76
2021/10/06 05:10:08;;;;;;;2.60;0.80;;;;;;;13.19;75.46;100490.03;4854110;29;20956;-75
2021/10/06 05:12:34;;;;;;;2.38;0.88;;;;;;;13.17;75.22;100494.91;4858518;29;20486;-75
2021/10/06 05:14:59;;;;;;;3.40;0.98;;;;;;;13.20;75.38;100491.69;4860565;29;20419;-76
2021/10/06 05:17:24;;;;;;;2.17;0.97;;;;;;;13.21;74.62;100493.31;4861176;29;20440;-78
2021/10/06 05:19:49;;;;;;;3.20;0.97;;;;;;;13.21;74.46;100497.91;4844283;29;20479;-77
2021/10/06 05:22:15;;;;;;;2.60;0.83;;;;;;;13.23;74.34;100482.16;4858698;29;20441;-76
2021/10/06 05:24:40;;;;;;;5.25;0.82;;;;;;;13.16;74.30;100487.84;4856867;29;20447;-76
2021/10/06 05:27:06;;;;;;;3.20;0.60;;;;;;;13.10;74.18;100493.50;4855780;29;20829;-76
2021/10/06 05:29:31;;;;;;;3.63;0.80;;;;;;;13.05;74.19;100487.97;4853099;29;20534;-76
2021/10/06 05:31:59;;;;;;;6.87;1.53;;;;;;;13.07;73.89;100497.53;4842586;29;20481;-77
2021/10/06 05:34:24;;;;;;;3.40;1.00;;;;;;;13.07;74.39;100496.72;4852035;29;20433;-76
2021/10/06 05:36:50;;;;;;;5.20;0.87;;;;;;;13.10;74.05;100493.50;4860207;29;20422;-76
2021/10/06 05:39:15;;;;;;;2.90;1.03;;;;;;;13.13;74.01;100499.25;4859358;29;20421;-76
2021/10/06 05:41:41;;;;;;;2.80;1.20;;;;;;;13.10;74.14;100502.50;4860404;29;20917;-75
2021/10/06 05:44:06;;;;;;;3.50;0.90;;;;;;;13.07;73.62;100502.97;4859616;29;20438;-76
2021/10/06 05:46:31;;;;;;;4.50;1.17;;;;;;;13.10;73.28;100505.22;4843150;29;20434;-75
2021/10/06 05:48:57;;;;;;;2.53;0.80;;;;;;;13.11;73.25;100501.38;4859870;29;20493;-75
2021/10/06 05:51:22;;;;;;;3.37;0.87;;;;;;;13.07;73.82;100510.31;4858144;29;20426;-76
2021/10/06 05:53:47;;;;;;;5.63;0.80;;;;;;;12.97;73.93;100514.56;4857447;29;20482;-76
2021/10/06 05:56:13;;;;;;;4.47;1.20;;;;;;;12.96;74.29;100512.94;4840333;29;21008;-76
2021/10/06 05:58:38;;;;;;;4.50;1.00;;;;;;;12.98;74.25;100518.13;4858376;29;20453;-77
2021/10/06 06:01:03;;;;;;;8.87;4.13;;;;;;;12.98;73.85;100516.22;4858795;29;20430;-76
2021/10/06 06:03:29;;;;;;;3.20;1.30;;;;;;;12.98;73.66;100516.22;4860161;29;20478;-77
2021/10/06 06:05:54;;;;;;;2.53;1.73;;;;;;;12.98;73.58;100531.72;4860340;29;20474;-76
2021/10/06 06:08:19;;;;;;;5.30;1.10;;;;;;;12.97;73.72;100522.72;4859309;29;20526;-76
2021/10/06 06:10:45;;;;;;;2.13;1.00;;;;;;;13.05;73.17;100537.78;4860478;29;20511;-76
2021/10/06 06:13:10;;;;;;;5.90;1.27;;;;;;;13.08;72.99;100539.16;4860520;29;20406;-77
2021/10/06 06:15:35;;;;;;;4.53;0.83;;;;;;;13.08;73.15;100547.31;4859260;29;20422;-76
2021/10/06 06:18:01;;;;;;;4.03;1.17;;;;;;;13.05;72.47;100554.09;4843483;29;20521;-76
2021/10/06 06:20:26;;;;;;;4.10;0.83;;;;;;;13.02;72.77;100560.06;4860075;29;20406;-76
2021/10/06 06:22:53;;;;;;;4.07;1.10;;;;;;;12.99;73.13;100555.13;4859954;29;20486;-76
2021/10/06 06:25:19;;;;;;;4.33;0.90;;;;;;;12.98;73.44;100565.19;4855207;29;20435;-76
2021/10/06 06:27:44;;;;;;;3.40;1.05;;;;;;;13.09;72.95;100552.53;4860049;29;20795;-77
2021/10/06 06:30:10;;;;;;;2.87;1.37;;;;;;;13.15;72.50;100558.84;4859897;29;20498;-76
2021/10/06 06:32:36;;;;;;;7.83;1.57;;;;;;;13.24;72.01;100557.28;4859929;29;20414;-76
2021/10/06 06:35:01;;;;;;;6.43;1.23;;;;;;;13.21;72.21;100571.41;4842348;29;20438;-76
2021/10/06 06:37:26;;;;;;;4.07;1.27;;;;;;;13.18;71.23;100569.19;4859738;29;20498;-76
2021/10/06 06:39:52;;;;;;;4.17;0.80;;;;;;;13.11;71.73;100569.41;4859880;29;20445;-76
2021/10/06 06:42:17;;;;;;;5.57;1.00;;;;;;;13.04;72.38;100562.53;4859743;29;20430;-76
2021/10/06 06:44:42;;;;;;;3.97;1.60;;;;;;;12.96;72.49;100578.25;4858754;29;20455;-76
2021/10/06 06:47:08;;;;;;;3.13;1.63;;;;;;;13.01;72.69;100563.84;4843168;29;20410;-76
2021/10/06 06:49:33;;;;;;;4.40;1.80;;;;;;;13.05;72.16;100575.03;4859493;29;20904;-76
2021/10/06 06:51:59;;;;;;;6.47;2.40;;;;;;;13.01;72.10;100577.44;4859501;29;20873;-76
2021/10/06 06:54:25;;;;;;;5.63;1.50;;;;;;;12.85;72.42;100579.19;4858365;29;20544;-76
2021/10/06 06:56:50;;;;;;;3.22;1.42;;;;;;;12.82;72.41;100570.75;4843168;29;20406;-76
2021/10/06 06:59:15;;;;;;;3.38;1.60;;;;;;;12.91;72.10;100582.78;4859169;29;20774;-76
2021/10/06 07:01:43;;;;;;;8.20;1.50;;;;;;;12.99;71.07;100585.88;4842171;29;20506;-76
2021/10/06 07:04:09;;;;;;;3.42;1.00;;;;;;;13.08;71.01;100582.69;4855103;29;20434;-76
2021/10/06 07:06:35;;;;;;;3.53;1.10;;;;;;;13.09;70.98;100578.91;4859402;29;20411;-76
2021/10/06 07:09:03;;;;;;;5.00;1.20;;;;;;;13.06;70.98;100593.84;4842803;29;20418;-76
2021/10/06 07:11:28;;;;;;;5.57;1.60;;;;;;;12.98;71.55;100595.13;4859283;29;20406;-77
2021/10/06 07:13:53;;;;;;;8.45;1.55;;;;;;;13.05;70.88;100597.63;4858388;29;20804;-76
2021/10/06 07:16:19;;;;;;;3.37;1.13;;;;;;;13.01;71.03;100599.22;4859364;29;20422;-76
2021/10/06 07:18:44;;;;;;;6.47;1.00;;;;;;;12.91;71.48;100607.25;4859639;29;20406;-76
2021/10/06 07:21:11;;;;;;;5.00;1.33;;;;;;;12.98;70.67;100616.88;4858941;29;20782;-76
2021/10/06 07:23:37;;;;;;;3.25;1.20;;;;;;;12.93;71.38;100618.72;4858764;29;20870;-76
2021/10/06 07:26:02;;;;;;;5.80;1.70;;;;;;;12.96;71.17;100610.06;4858295;29;20433;-76
2021/10/06 07:28:27;;;;;;;3.70;1.40;;;;;;;12.99;70.99;100615.81;4857224;29;20418;-76
2021/10/06 07:30:53;;;;;;;1.10;0.90;;;;;;;12.99;71.44;100620.41;4858226;29;20886;-76
2021/10/06 07:33:19;;;;;;;6.00;1.27;;;;;;;13.01;71.26;100621.81;4859289;29;20410;-77
2021/10/06 07:35:45;;;;;;;6.35;1.92;;;;;;;13.02;71.09;100630.78;4858106;29;20426;-76
2021/10/06 07:38:10;;;;;;;6.38;1.10;;;;;;;12.92;71.76;100633.41;4857701;29;20439;-76
2021/10/06 07:40:35;;;;;;;5.60;1.37;;;;;;;13.01;71.43;100634.56;4856942;29;20418;-76
2021/10/06 07:43:01;;;;;;;3.90;1.33;;;;;;;13.11;70.95;100650.22;4858801;29;20426;-76
2021/10/06 07:45:26;;;;;;;2.93;1.10;;;;;;;13.01;71.50;100656.34;4858672;29;20409;-76
2021/10/06 07:47:51;;;;;;;4.13;1.00;;;;;;;13.00;70.48;100658.25;4858432;29;20429;-76
2021/10/06 07:50:17;;;;;;;3.30;1.17;;;;;;;13.08;70.40;100665.13;4857941;29;20459;-76
2021/10/06 07:52:42;;;;;;;3.40;1.20;;;;;;;13.08;70.63;100665.13;4858794;29;20874;-76
2021/10/06 07:55:08;;;;;;;5.23;1.30;;;;;;;13.14;70.92;100660.63;4858809;29;20474;-76
2021/10/06 07:57:35;;;;;;;7.03;1.50;;;;;;;13.20;70.37;100667.75;4858710;29;20413;-76
2021/10/06 08:00:01;;;;;;;3.88;0.70;;;;;;;13.11;70.41;100670.09;4858060;29;20517;-76
2021/10/06 08:02:26;;;;;;;8.95;1.35;;;;;;;13.06;70.64;100678.19;4857311;29;20470;-75
2021/10/06 08:04:52;;;;;;;6.87;1.37;;;;;;;13.14;70.05;100679.66;4854644;29;20419;-76
2021/10/06 08:07:17;;;;;;;5.95;1.00;;;;;;;13.20;69.89;100674.00;4857532;29;20510;-76
2021/10/06 08:09:43;;;;;;;7.20;1.70;;;;;;;13.20;69.77;100690.34;4841894;29;20920;-76
2021/10/06 08:12:08;;;;;;;3.17;1.10;;;;;;;13.15;69.73;100693.00;4858498;29;20414;-76
2021/10/06 08:14:34;;;;;;;6.35;1.60;;;;;;;13.17;70.09;100685.38;4858605;29;20501;-76
2021/10/06 08:16:59;;;;;;;6.40;1.80;;;;;;;13.16;69.77;100683.75;4857874;29;20446;-76
2021/10/06 08:19:25;;;;;;;9.43;1.83;;;;;;;13.18;70.03;100686.22;4858023;29;20517;-76
2021/10/06 08:21:50;;;;;;;4.13;1.02;;;;;;;13.26;70.12;100692.03;4857591;29;20430;-76
2021/10/06 08:24:15;;;;;;;4.90;1.10;;;;;;;13.39;70.09;100698.97;4858616;29;20414;-76
2021/10/06 08:26:41;;;;;;;3.00;1.20;;;;;;;13.45;69.44;100701.47;4856669;29;20414;-76
2021/10/06 08:29:06;;;;;;;4.50;1.40;;;;;;;13.47;69.21;100704.75;4858075;29;20490;-76
2021/10/06 08:31:32;;;;;;;6.38;1.27;;;;;;;13.53;68.98;100713.81;4857970;29;20429;-76
2021/10/06 08:33:57;;;;;;;6.20;1.13;;;;;;;13.48;68.83;100711.00;4856017;29;20435;-76
2021/10/06 08:36:22;;;;;;;4.10;1.30;;;;;;;13.41;69.78;100713.13;4842195;29;20426;-76
2021/10/06 08:38:48;;;;;;;8.53;1.70;;;;;;;13.32;69.45;100707.31;4858596;29;20419;-76
2021/10/06 08:41:13;;;;;;;7.00;1.63;;;;;;;13.30;69.44;100714.13;4860872;29;20426;-76
2021/10/06 08:43:40;;;;;;;4.97;2.00;;;;;;;13.27;69.47;100717.34;4844399;29;20465;-77
2021/10/06 08:46:06;;;;;;;5.97;1.52;;;;;;;13.28;70.25;100717.06;4861585;29;20441;-75
2021/10/06 08:48:31;;;;;;;7.18;1.58;;;;;;;13.32;69.45;100711.94;4843046;29;20422;-76
2021/10/06 08:50:56;;;;;;;6.38;1.30;;;;;;;13.40;70.01;100706.84;4858478;29;20509;-75
2021/10/06 08:53:22;;;;;;;5.13;1.27;;;;;;;13.53;69.96;100700.97;4860064;29;20418;-76
2021/10/06 08:55:47;;;;;;;4.40;1.10;;;;;;;13.60;69.21;100708.16;4861610;29;20781;-76
2021/10/06 08:58:12;;;;;;;6.00;1.93;;;;;;;13.58;69.72;100705.66;4861743;29;20418;-76
2021/10/06 09:00:52;;;;;;;6.22;1.05;;;;;;;13.79;68.31;100714.84;4844317;29;20462;-77
2021/10/06 09:03:32;;;;;;;5.57;1.25;;;;;;;13.78;68.74;100711.28;4843772;29;20510;-76
2021/10/06 09:06:02;;;;;;;2.90;1.23;;;;;;;13.78;68.44;100719.47;4859346;29;20422;-76
2021/10/06 09:08:29;;;;;;;6.15;1.23;;;;;;;13.92;68.53;100717.13;4861393;29;20422;-76
2021/10/06 09:10:55;;;;;;;5.40;1.60;;;;;;;14.07;68.62;100716.41;4844331;29;20418;-77
2021/10/06 09:13:26;;;;;;;4.55;1.35;;;;;;;14.20;68.46;100719.50;4861760;29;20414;-76
2021/10/06 09:15:52;;;;;;;4.70;1.35;;;;;;;14.32;67.93;100714.69;4859038;29;20876;-76
2021/10/06 09:18:22;;;;;;;5.57;1.42;;;;;;;14.47;66.12;100717.53;4861082;29;20429;-76
2021/10/06 09:20:49;;;;;;;8.43;1.17;;;;;;;14.53;66.56;100718.38;4861058;29;20426;-77
2021/10/06 09:23:17;;;;;;;3.83;0.97;;;;;;;14.65;66.49;100726.38;4861163;29;20485;-77
2021/10/06 09:26:03;;;;;;;4.83;0.90;;;;;;;14.72;66.87;100724.22;4844803;29;20455;-76
2021/10/06 09:28:35;;;;;;;4.13;0.93;;;;;;;15.00;65.40;100721.06;4859980;29;20434;-75
2021/10/06 09:31:09;;;;;;;3.40;1.00;;;;;;;14.84;65.20;100719.34;4856925;29;20793;-77
2021/10/06 09:33:43;;;;;;;4.07;1.52;;;;;;;14.74;66.19;100719.31;4843290;29;20426;-77
2021/10/06 09:36:35;;;;;;;3.97;1.55;;;;;;;14.78;65.33;100726.72;4858957;29;20446;-76
2021/10/06 09:39:07;;;;;;;8.10;1.08;;;;;;;15.09;65.03;100735.81;4859303;29;20418;-76
2021/10/06 09:41:33;;;;;;;7.00;1.95;;;;;;;15.06;64.51;100729.00;4838853;29;20430;-77
2021/10/06 09:44:02;;;;;;;4.93;1.30;;;;;;;14.97;64.79;100729.78;4860090;29;20430;-76
2021/10/06 09:46:48;;;;;;;5.90;1.47;;;;;;;15.03;64.30;100725.97;4860680;29;20449;-76
2021/10/06 09:49:24;;;;;;;4.22;1.30;;;;;;;15.45;64.21;100729.38;4849867;29;20752;-76
2021/10/06 09:51:51;;;;;;;7.67;2.27;;;;;;;15.60;63.56;100728.63;4859011;29;20432;-76
2021/10/06 09:54:18;;;;;;;7.68;1.20;;;;;;;15.49;62.26;100726.94;4847631;29;20509;-77
2021/10/06 09:56:46;;;;;;;7.97;2.40;;;;;;;15.27;61.48;100735.34;4841169;29;20422;-76
2021/10/06 09:59:13;;;;;;;6.15;2.60;;;;;;;14.99;62.86;100733.06;4864231;29;20410;-76
2021/10/06 10:01:40;;;;;;;4.60;0.75;;;;;;;14.82;63.46;100729.72;4860410;29;20437;-76
2021/10/06 10:04:07;;;;;;;4.53;1.58;;;;;;;14.80;63.55;100731.88;4843377;29;20414;-76
2021/10/06 10:06:33;;;;;;;3.35;0.95;;;;;;;14.75;64.30;100731.88;4860630;29;20800;-77
2021/10/06 10:09:02;;;;;;;5.43;1.23;;;;;;;15.04;63.64;100727.63;4843918;29;20471;-76
2021/10/06 10:11:28;;;;;;;4.80;1.87;;;;;;;15.60;62.04;100727.78;4860388;29;20411;-76
2021/10/06 10:13:55;;;;;;;5.38;1.90;;;;;;;16.07;60.62;100728.31;4860028;29;20886;-76
2021/10/06 10:16:21;;;;;;;6.63;1.20;;;;;;;16.00;59.78;100734.06;4859703;29;20809;-77
2021/10/06 10:18:47;;;;;;;5.30;1.55;;;;;;;16.18;58.34;100729.16;4860140;29;20402;-76
2021/10/06 10:21:15;;;;;;;4.15;0.98;;;;;;;16.59;57.56;100726.13;4860045;29;20434;-76
2021/10/06 10:23:43;;;;;;;7.65;1.90;;;;;;;17.52;55.56;100731.66;4860294;29;20417;-77
2021/10/06 10:26:23;;;;;;;3.87;1.17;;;;;;;18.81;52.03;100720.09;4842630;29;20433;-76
2021/10/06 10:28:48;;;;;;;2.10;1.10;;;;;;;19.80;48.20;100723.69;4839792;29;20524;-77
2021/10/06 10:31:18;;;;;;;6.03;1.00;;;;;;;20.83;45.91;100720.47;4855299;29;21042;-76
2021/10/06 10:33:45;;;;;;;4.57;1.42;;;;;;;21.80;43.45;100728.22;4860015;29;20882;-77
2021/10/06 10:36:32;;;;;;;5.32;1.35;;;;;;;22.86;41.08;100727.41;4857522;29;20782;-77
2021/10/06 10:38:58;;;;;;;4.32;0.98;;;;;;;23.68;39.27;100725.47;4860363;29;20763;-76
2021/10/06 10:41:53;;;;;;;3.28;1.00;;;;;;;24.56;36.76;100730.56;4842838;29;20422;-75
2021/10/06 10:44:30;;;;;;;2.92;0.82;;;;;;;24.99;36.12;100734.00;4857965;29;20431;-75
2021/10/06 10:46:57;;;;;;;4.70;1.30;;;;;;;24.86;35.42;100750.84;4842946;29;20437;-75
2021/10/06 10:49:23;;;;;;;1.90;0.80;;;;;;;25.26;34.62;100749.31;4842901;29;20414;-75
2021/10/06 10:51:56;;;;;;;4.10;1.03;;;;;;;25.07;34.59;100743.38;4859629;29;20410;-75
2021/10/06 10:54:40;;;;;;;5.13;0.88;;;;;;;22.92;37.81;100757.34;4859742;29;20766;-76
2021/10/06 10:57:15;;;;;;;3.88;1.15;;;;;;;20.49;42.67;100753.06;4857917;29;20772;-75
2021/10/06 10:59:44;;;;;;;5.90;1.30;;;;;;;19.01;46.86;100741.84;4861372;29;20469;-74
2021/10/06 11:02:29;;;;;;;2.60;0.50;;;;;;;17.85;50.30;100743.78;4859102;29;20434;-75
2021/10/06 11:05:06;;;;;;;4.07;0.87;;;;;;;17.39;51.04;100740.53;4855331;29;20454;-75
2021/10/06 11:07:32;;;;;;;5.05;1.50;;;;;;;16.98;52.10;100739.09;4844742;29;20795;-76
2021/10/06 11:10:00;;;;;;;5.05;0.90;;;;;;;16.66;53.81;100744.97;4858588;29;20418;-75
2021/10/06 11:12:25;;;;;;;3.80;1.05;;;;;;;16.33;54.01;100742.81;4856072;29;20489;-75
2021/10/06 11:15:18;;;;;;;2.33;1.03;;;;;;;15.97;55.75;100745.56;4856932;29;20509;-75
2021/10/06 11:18:09;;;;;;;3.90;1.20;;;;;;;15.89;56.67;100750.75;4858400;29;20443;-75
2021/10/06 11:20:45;;;;;;;11.18;3.58;;;;;;;16.04;56.81;100740.63;4842571;29;20489;-75
2021/10/06 11:23:29;;;;;;;8.83;3.00;;;;;;;16.24;56.76;100744.44;4858497;29;20430;-75